Aérodrome :
LOGIN :

S'inscrire | Disclaimer

   EN    FR    IT 

 










Légende :    VFR   VFR Marginal   IFR   IFR Intensif   IFR Très Intensif
Visi : 
Plafond : 
>= 8 km
>= 3000ft
5 à 8 km
1000 à 3000 ft
1500m à 5 km
500 à 1000 ft
800 à 1500m
200 à 500 ft
< 800m
< 200 ft
Symboles :   Orages  Brouillard  Fortes neiges  Fortes précipitations  Vent > 20 kt
SIGMETs :   Divers  Orages  Givrage  Turbulence  Onde Orograph.  Cendres Volcan.







- Altitude de l'aérodrome : 791 ft
- Code IATA : KRK


EPKK - Krakow-Balice

DERNIER METAR :
  • 120300Z 23002KT 2500 -SN BR SCT013 BKN020 00/M00 Q1014 R25/51//95

METARs EXPIRÉS :
  • 120230Z 22002KT 1500 -SN BR FEW007 BKN015 00/M00 Q1014 R25/51//95
  • 120200Z 22002KT 2000 -SN BR FEW005 BKN015 00/M00 Q1014 R25/51//95
  • 120130Z VRB01KT 2000 -SN BR SCT009 BKN015 00/M00 Q1014 R25/51//95
  • 120100Z 21003KT 3500 -SN BR FEW007 SCT009 BKN012 00/M00 Q1014 R25/51//95
  • 120030Z 22003KT 3500 -SN BR FEW006 BKN011 00/M00 Q1013 R25/51//95

TAF TAF EPKK
Valide du 12 à 03h jusqu'au 13 à 03h UTC


120230Z 1203/1303 VRB02KT 6000 BKN012
TEMPO 1203/1303 2000 RASN SN BR BKN003 BKN007
PROB40
TEMPO 1210/1219 1000 SHSN BKN003 BKN007CB
BECMG 1215/1218 07010KT
Pas de NOTAMs connus pour ce terrain.



MET'MAP, la Météo Aéronautique d'un coup d'oeil ! - Copyright ORBIFLY Décembre 2007 - Disclaimer

ORBIFLY MET'MAP TEAM :

Programmation & Développement : Alexandra Zaïnal
Conception & Développement : Baudouin d'Aumeries
Co-Programmation & Développement : Marc-Olivier Méhu
Soutien technique & logistique : Manuel Goepfert

Contact : metmap@orbifly.com




SOURCES & CREDITS :

   NOAA